createdAt,value
2018-07-19T00:00:31.793Z,20.29
2018-07-19T00:05:34.799Z,20.18
2018-07-19T00:10:37.904Z,20.05
2018-07-19T00:15:40.893Z,19.99
2018-07-19T00:20:43.927Z,19.94
2018-07-19T00:25:46.986Z,19.79
2018-07-19T00:30:50.317Z,19.73
2018-07-19T00:35:53.309Z,19.60
2018-07-19T00:40:56.361Z,19.51
2018-07-19T00:45:59.407Z,19.43
2018-07-19T00:51:02.491Z,19.32
2018-07-19T00:56:05.606Z,19.24
2018-07-19T01:01:08.626Z,19.13
2018-07-19T01:06:11.620Z,19.09
2018-07-19T01:11:14.621Z,19.02
2018-07-19T01:16:17.969Z,18.86
2018-07-19T01:21:20.981Z,18.76
2018-07-19T01:26:24.023Z,18.72
2018-07-19T01:31:27.057Z,18.71
2018-07-19T01:36:30.114Z,18.62
2018-07-19T01:42:39.933Z,18.62
2018-07-19T01:47:42.957Z,18.40
2018-07-19T01:52:45.962Z,18.40
2018-07-19T01:57:48.976Z,18.35
2018-07-19T02:02:52.006Z,18.28
2018-07-19T02:07:54.988Z,18.24
2018-07-19T02:12:58.012Z,18.24
2018-07-19T02:18:01.049Z,18.20
2018-07-19T02:23:04.122Z,18.09
2018-07-19T02:28:07.129Z,17.99
2018-07-19T02:33:10.127Z,17.94
2018-07-19T02:38:13.110Z,17.85
2018-07-19T02:43:16.117Z,17.69
2018-07-19T02:48:19.137Z,17.72
2018-07-19T02:53:22.113Z,17.76
2018-07-19T02:58:25.111Z,17.75
2018-07-19T03:03:28.135Z,17.58
2018-07-19T03:08:31.565Z,17.63
2018-07-19T03:13:34.590Z,17.65
2018-07-19T03:18:37.634Z,17.57
2018-07-19T03:23:40.842Z,17.55
2018-07-19T03:28:43.828Z,17.53
2018-07-19T03:33:46.833Z,17.58
2018-07-19T03:38:49.828Z,17.56
2018-07-19T03:43:52.828Z,17.58
2018-07-19T03:48:55.821Z,17.66
2018-07-19T03:53:58.888Z,17.65
2018-07-19T03:59:01.886Z,17.65
2018-07-19T04:04:05.005Z,17.64
2018-07-19T04:09:08.297Z,17.71
2018-07-19T04:14:11.417Z,17.84
2018-07-19T04:19:14.426Z,18.02
2018-07-19T04:24:17.505Z,18.11
2018-07-19T04:29:22.064Z,18.16
2018-07-19T04:34:25.053Z,18.25
2018-07-19T04:39:28.125Z,18.37
2018-07-19T04:44:31.153Z,18.56
2018-07-19T04:49:34.205Z,18.67
2018-07-19T04:54:37.240Z,18.82
2018-07-19T04:59:40.205Z,18.98
2018-07-19T05:04:43.278Z,19.15
2018-07-19T05:09:46.500Z,19.33
2018-07-19T05:14:49.504Z,19.55
2018-07-19T05:19:52.588Z,19.81
2018-07-19T05:24:55.706Z,20.09
2018-07-19T05:29:58.710Z,20.14
2018-07-19T05:35:01.781Z,20.23
2018-07-19T05:40:05.169Z,20.53
2018-07-19T05:45:08.251Z,20.92
2018-07-19T05:50:11.285Z,21.04
2018-07-19T05:55:14.389Z,21.32
2018-07-19T06:00:17.453Z,21.54
2018-07-19T06:05:20.478Z,21.75
2018-07-19T06:10:23.478Z,21.81
2018-07-19T06:15:26.537Z,21.97
2018-07-19T06:20:29.577Z,21.94
2018-07-19T06:25:32.588Z,22.12
2018-07-19T06:30:35.608Z,22.21
2018-07-19T06:35:38.713Z,22.22
2018-07-19T06:40:41.724Z,22.17
2018-07-19T06:45:44.736Z,22.17
2018-07-19T06:50:47.794Z,22.23
2018-07-19T06:55:50.868Z,22.45
2018-07-19T07:00:53.865Z,22.46
2018-07-19T07:05:56.898Z,22.81
2018-07-19T07:10:59.937Z,22.90
2018-07-19T07:16:02.984Z,23.08
2018-07-19T07:21:06.106Z,23.11
2018-07-19T07:26:09.164Z,23.28
2018-07-19T07:31:12.233Z,23.43
2018-07-19T07:36:15.270Z,23.49
2018-07-19T07:41:18.286Z,23.79
2018-07-19T07:46:21.331Z,24.06
2018-07-19T07:51:24.397Z,24.30
2018-07-19T07:56:27.399Z,24.59
2018-07-19T08:01:30.430Z,24.75
2018-07-19T08:06:33.455Z,24.76
2018-07-19T08:11:36.577Z,24.77
2018-07-19T08:16:39.638Z,24.65
2018-07-19T08:21:42.720Z,24.92
2018-07-19T08:26:45.721Z,25.00
2018-07-19T08:31:48.853Z,25.08
2018-07-19T08:36:51.961Z,25.12
2018-07-19T08:41:55.078Z,25.18
2018-07-19T08:46:58.117Z,25.61
2018-07-19T08:52:01.338Z,25.77
2018-07-19T08:57:04.452Z,25.93
2018-07-19T09:02:07.548Z,26.09
2018-07-19T09:07:10.628Z,26.49
2018-07-19T09:12:13.737Z,26.70
2018-07-19T09:17:17.197Z,26.76
2018-07-19T09:22:20.260Z,27.05
2018-07-19T09:27:24.718Z,27.07
2018-07-19T09:32:27.828Z,26.86
2018-07-19T09:37:30.892Z,27.22
2018-07-19T09:42:33.971Z,27.73
2018-07-19T09:47:37.022Z,27.96
2018-07-19T09:52:40.025Z,28.02
2018-07-19T09:57:43.089Z,27.99
2018-07-19T10:02:46.321Z,27.51
2018-07-19T10:07:49.514Z,27.83
2018-07-19T10:12:52.494Z,27.94
2018-07-19T10:17:55.537Z,27.70
2018-07-19T10:22:58.551Z,27.87
2018-07-19T10:28:02.047Z,28.14
2018-07-19T10:33:05.054Z,28.33
2018-07-19T10:38:08.064Z,28.30
2018-07-19T10:43:11.183Z,28.26
2018-07-19T10:48:14.262Z,27.93
2018-07-19T10:53:21.704Z,28.01
2018-07-19T10:58:24.691Z,28.34
2018-07-19T11:03:28.288Z,28.08
2018-07-19T11:08:31.381Z,28.42
2018-07-19T11:13:34.372Z,28.71
2018-07-19T11:18:37.429Z,29.06
2018-07-19T11:23:40.425Z,29.43
2018-07-19T11:28:43.601Z,29.79
2018-07-19T11:33:46.659Z,29.99
2018-07-19T11:38:49.741Z,30.15
2018-07-19T11:43:52.805Z,30.23
2018-07-19T11:48:55.960Z,30.48
2018-07-19T11:53:58.998Z,30.71
2018-07-19T11:59:02.146Z,31.20
2018-07-19T12:04:05.176Z,30.92
2018-07-19T12:09:10.224Z,30.56
2018-07-19T12:14:13.240Z,30.10
2018-07-19T12:19:16.290Z,29.65
2018-07-19T12:24:19.397Z,29.66
2018-07-19T12:29:22.453Z,30.45
2018-07-19T12:34:25.545Z,31.10
2018-07-19T12:39:28.562Z,31.65
2018-07-19T12:44:31.844Z,31.96
2018-07-19T12:49:34.809Z,32.21
2018-07-19T12:54:37.885Z,32.05
2018-07-19T12:59:41.068Z,31.38
2018-07-19T13:04:44.105Z,30.82
2018-07-19T13:09:47.303Z,31.00
2018-07-19T13:14:51.286Z,31.22
2018-07-19T13:19:54.312Z,31.55
2018-07-19T13:24:57.442Z,31.88
2018-07-19T13:30:00.513Z,31.70
2018-07-19T13:35:03.793Z,31.02
2018-07-19T13:40:06.928Z,30.43
2018-07-19T13:45:09.992Z,30.04
2018-07-19T13:50:13.073Z,30.40
2018-07-19T13:55:16.069Z,30.90
2018-07-19T14:00:19.233Z,30.82
2018-07-19T14:05:22.265Z,31.19
2018-07-19T14:10:25.449Z,31.17
2018-07-19T14:15:28.630Z,31.32
2018-07-19T14:20:31.664Z,31.23
2018-07-19T14:25:34.662Z,31.21
2018-07-19T14:30:37.693Z,30.58
2018-07-19T14:35:40.794Z,30.42
2018-07-19T14:40:43.868Z,30.47
2018-07-19T14:45:47.045Z,30.54
2018-07-19T14:50:50.048Z,31.08
2018-07-19T14:55:53.057Z,31.04
2018-07-19T15:00:56.116Z,30.73
2018-07-19T15:05:59.132Z,30.21
2018-07-19T15:11:02.128Z,30.43
2018-07-19T15:16:05.197Z,31.11
2018-07-19T15:21:08.188Z,30.71
2018-07-19T15:26:11.180Z,31.23
2018-07-19T15:31:14.378Z,31.21
2018-07-19T15:36:17.380Z,30.53
2018-07-19T15:41:20.415Z,30.32
2018-07-19T15:46:23.472Z,29.79
2018-07-19T15:51:26.484Z,30.10
2018-07-19T15:56:29.513Z,30.61
2018-07-19T16:01:32.546Z,30.47
2018-07-19T16:06:35.561Z,30.12
2018-07-19T16:11:38.657Z,30.35
2018-07-19T16:16:41.625Z,30.37
2018-07-19T16:21:44.678Z,30.18
2018-07-19T16:26:47.765Z,30.33
2018-07-19T16:31:50.831Z,30.33
2018-07-19T16:36:53.983Z,30.53
2018-07-19T16:41:57.006Z,30.98
2018-07-19T16:47:00.150Z,30.90
2018-07-19T16:52:03.190Z,30.81
2018-07-19T16:57:06.556Z,30.19
2018-07-19T17:02:10.653Z,30.13
2018-07-19T17:07:13.750Z,29.98
2018-07-19T17:12:16.793Z,29.71
2018-07-19T17:17:19.852Z,29.67
2018-07-19T17:22:22.852Z,29.30
2018-07-19T17:27:25.841Z,29.12
2018-07-19T17:32:28.910Z,29.06
2018-07-19T17:37:31.982Z,28.87
2018-07-19T17:42:35.246Z,28.79
2018-07-19T17:47:38.338Z,28.87
2018-07-19T17:52:41.308Z,28.73
2018-07-19T17:57:44.509Z,28.44
2018-07-19T18:02:47.582Z,28.22
2018-07-19T18:07:50.593Z,28.08
2018-07-19T18:12:53.706Z,28.08
2018-07-19T18:17:56.984Z,28.00
2018-07-19T18:23:00.053Z,27.95
2018-07-19T18:28:03.510Z,27.83
2018-07-19T18:33:06.651Z,27.70
2018-07-19T18:38:09.713Z,27.60
2018-07-19T18:43:12.696Z,27.49
2018-07-19T18:48:15.680Z,27.30
2018-07-19T18:53:19.029Z,27.16
2018-07-19T18:58:22.474Z,27.06
2018-07-19T19:03:25.908Z,26.88
2018-07-19T19:08:28.951Z,26.65
2018-07-19T19:13:32.237Z,26.41
2018-07-19T19:18:35.434Z,26.23
2018-07-19T19:23:38.456Z,26.04
2018-07-19T19:28:42.162Z,25.90
2018-07-19T19:33:45.201Z,25.79
2018-07-19T19:38:48.217Z,25.62
2018-07-19T19:43:51.702Z,25.46
2018-07-19T19:48:54.798Z,25.46
2018-07-19T19:53:57.872Z,25.31
2018-07-19T19:59:00.982Z,25.14
2018-07-19T20:04:04.237Z,25.05
2018-07-19T20:09:09.820Z,25.02
2018-07-19T20:14:14.334Z,24.96
2018-07-19T20:19:17.505Z,24.86
2018-07-19T20:24:21.088Z,24.71
2018-07-19T20:29:24.298Z,24.59
2018-07-19T20:34:27.368Z,24.53
2018-07-19T20:39:30.638Z,24.46
2018-07-19T20:44:33.767Z,24.32
2018-07-19T20:49:36.884Z,24.23
2018-07-19T20:54:40.241Z,24.12
2018-07-19T20:59:43.292Z,24.10
2018-07-19T21:04:46.514Z,24.02
2018-07-19T21:09:50.056Z,23.81
2018-07-19T21:14:53.779Z,23.67
2018-07-19T21:19:58.038Z,23.58
2018-07-19T21:25:01.142Z,23.45
2018-07-19T21:30:05.519Z,23.44
2018-07-19T21:35:09.218Z,23.52
2018-07-19T21:40:12.247Z,23.54
2018-07-19T21:45:15.229Z,23.47
2018-07-19T21:50:18.227Z,23.44
2018-07-19T21:55:21.656Z,23.25
2018-07-19T22:00:28.677Z,23.07
2018-07-19T22:05:31.760Z,23.03
2018-07-19T22:10:34.768Z,22.88
2018-07-19T22:15:38.087Z,22.80
2018-07-19T22:20:41.135Z,22.85
2018-07-19T22:25:44.126Z,22.77
2018-07-19T22:30:47.125Z,22.74
2018-07-19T22:35:50.451Z,22.79
2018-07-19T22:40:53.460Z,22.77
2018-07-19T22:45:56.473Z,22.70
2018-07-19T22:50:59.501Z,22.65
2018-07-19T22:56:02.528Z,22.65
2018-07-19T23:01:05.619Z,22.68
2018-07-19T23:06:08.645Z,22.57
2018-07-19T23:11:11.692Z,22.41
2018-07-19T23:16:14.997Z,22.41
2018-07-19T23:21:17.968Z,22.45
2018-07-19T23:26:21.005Z,22.38
2018-07-19T23:31:24.029Z,22.34
2018-07-19T23:36:30.336Z,22.29
2018-07-19T23:41:38.348Z,22.20
2018-07-19T23:46:47.008Z,22.17
2018-07-19T23:51:50.001Z,22.01
2018-07-19T23:56:52.960Z,21.87
